Mizpah, Minnesota
Current Conditions -  °F | °C
As of 6:49 PM on Monday 22 Dec 2014 (Local Time) from KVWU Reporting Station
Moderate Rain Moderate Rain  
Wind Chill: 36°   Ceiling: 700
Heat Index: 36°   Visibility: 7mi
Dew Point: 34°   Wind: 0mph
Humidity: 93%   Direction: NA
Pressure: 29.69"   Gusts: NA
Location:  47.92°N, 94.2°W
Report Text: KVWU 230049Z AUTO 00000KT 7SM RA BKN007 OVC012 02/01 A2969 RMK AO2
Loading
Personal Weather Stations






























Interactive Weather Map New forecast layout! Learn more

10-Day Weather Forecast

Advertisements
Track Severe Weather on mobile